Time;durP1;ratioP1;P1;durP2;ratioP2;P2;SDS_P1;SDS_P2;PMS_P1;PMS_P2;Temp;Humidity;BMP_temperature;BMP_pressure;BME280_temperature;BME280_humidity;BME280_pressure;Samples;Min_cycle;Max_cycle;Signal;HPM_P1;HPM_P2
2021/04/27 00:01:57;;;;;;;;;;;;;;;11.17;86.14;101232.62;1891161;76;21364;-82
2021/04/27 00:04:25;;;;;;;;;;;;;;;11.15;86.05;101239.19;1890430;75;20207;-78
2021/04/27 00:06:53;;;;;;;;;;;;;;;11.14;85.96;101238.34;1891181;76;20104;-81
2021/04/27 00:09:21;;;;;;;;;;;;;;;11.14;85.97;101244.84;1890826;76;20196;-80
2021/04/27 00:11:49;;;;;;;;;;;;;;;11.12;85.95;101249.30;1891096;76;20470;-78
2021/04/27 00:14:18;;;;;;;;;;;;;;;11.12;85.85;101251.90;1890497;76;21354;-78
2021/04/27 00:16:46;;;;;;;;;;;;;;;11.13;85.86;101251.44;1890399;76;20489;-81
2021/04/27 00:19:15;;;;;;;;;;;;;;;11.17;85.86;101246.91;1891296;76;20124;-80
2021/04/27 00:21:43;;;;;;;;;;;;;;;11.19;85.89;101243.73;1890665;76;20278;-77
2021/04/27 00:24:11;;;;;;;;;;;;;;;11.21;85.86;101237.98;1891020;76;20509;-79
2021/04/27 00:26:39;;;;;;;;;;;;;;;11.20;85.89;101235.84;1891626;76;21632;-76
2021/04/27 00:29:07;;;;;;;;;;;;;;;11.20;85.94;101231.13;1890819;76;20325;-75
2021/04/27 00:31:35;;;;;;;;;;;;;;;11.20;86.06;101238.44;1890868;76;20143;-77
2021/04/27 00:34:04;;;;;;;;;;;;;;;11.21;86.12;101235.38;1890628;76;20140;-77
2021/04/27 00:36:32;;;;;;;;;;;;;;;11.19;86.18;101230.30;1891284;76;20486;-77
2021/04/27 00:38:59;;;;;;;;;;;;;;;11.19;86.38;101222.95;1890931;75;21468;-77
2021/04/27 00:41:27;;;;;;;;;;;;;;;11.15;86.35;101216.65;1890970;76;20199;-77
2021/04/27 00:43:56;;;;;;;;;;;;;;;11.18;86.56;101206.98;1889984;76;20556;-80
2021/04/27 00:46:26;;;;;;;;;;;;;;;11.20;86.71;101202.06;1887451;76;20108;-79
2021/04/27 00:48:55;;;;;;;;;;;;;;;11.21;86.72;101201.61;1887585;75;20235;-79
2021/04/27 00:51:24;;;;;;;;;;;;;;;11.21;86.78;101192.52;1887183;76;21635;-78
2021/04/27 00:53:52;;;;;;;;;;;;;;;11.22;86.71;101192.90;1887713;76;20128;-80
2021/04/27 00:56:22;;;;;;;;;;;;;;;11.24;86.75;101194.47;1887290;76;20132;-77
2021/04/27 00:58:51;;;;;;;;;;;;;;;11.22;86.61;101196.34;1887076;76;20639;-77
2021/04/27 01:01:20;;;;;;;;;;;;;;;11.20;86.57;101189.08;1887765;75;20210;-79
2021/04/27 01:03:48;;;;;;;;;;;;;;;11.19;86.58;101187.43;1888102;75;21367;-79
2021/04/27 01:06:17;;;;;;;;;;;;;;;11.14;86.67;101173.86;1887121;75;20709;-78
2021/04/27 01:12:11;;;;;;;;;;;;;;;11.13;86.87;101168.31;1887391;75;20547;-79
2021/04/27 01:14:41;;;;;;;;;;;;;;;11.14;86.90;101169.51;1887488;76;20171;-79
2021/04/27 01:17:11;;;;;;;;;;;;;;;11.14;86.91;101170.81;1854090;76;21284;-80
2021/04/27 01:19:45;;;;;;;;;;;;;;;11.13;86.96;101169.16;1886568;76;20219;-79
2021/04/27 01:22:17;;;;;;;;;;;;;;;11.14;86.94;101171.27;1853393;76;20120;-78
2021/04/27 01:24:54;;;;;;;;;;;;;;;11.15;86.87;101163.86;1887548;76;20240;-79
2021/04/27 01:27:24;;;;;;;;;;;;;;;11.15;86.83;101157.36;1888079;75;20227;-78
2021/04/27 01:29:51;;;;;;;;;;;;;;;11.13;86.72;101147.08;1888339;76;21323;-79
2021/04/27 01:32:21;;;;;;;;;;;;;;;11.12;86.77;101145.86;1887653;76;20112;-78
2021/04/27 01:34:52;;;;;;;;;;;;;;;11.08;86.81;101136.58;1887905;76;20490;-79
2021/04/27 01:37:21;;;;;;;;;;;;;;;11.05;87.01;101136.30;1883101;76;20310;-79
2021/04/27 01:39:50;;;;;;;;;;;;;;;11.02;87.33;101141.68;1825098;76;20191;-79
2021/04/27 01:42:18;;;;;;;;;;;;;;;11.03;87.38;101142.52;1887441;76;22228;-78
2021/04/27 01:44:45;;;;;;;;;;;;;;;11.01;87.48;101132.21;1889840;75;20227;-78
2021/04/27 01:47:28;;;;;;;;;;;;;;;11.03;87.51;101121.29;1893744;75;20210;-78
2021/04/27 01:49:58;;;;;;;;;;;;;;;11.04;87.54;101122.13;1894127;75;20250;-77
2021/04/27 01:52:45;;;;;;;;;;;;;;;11.03;87.50;101119.98;1893984;75;20485;-78
2021/04/27 01:55:13;;;;;;;;;;;;;;;11.01;87.57;101118.39;1894698;75;21796;-80
2021/04/27 01:57:42;;;;;;;;;;;;;;;11.01;87.51;101114.03;1893908;75;20155;-77
2021/04/27 02:00:12;;;;;;;;;;;;;;;11.00;87.37;101114.14;1893822;75;20104;-77
2021/04/27 02:02:45;;;;;;;;;;;;;;;10.98;87.33;101109.48;1893564;75;20125;-77
2021/04/27 02:05:21;;;;;;;;;;;;;;;10.97;87.31;101104.78;1857562;75;20557;-77
2021/04/27 02:07:59;;;;;;;;;;;;;;;10.99;87.23;101109.86;1893709;75;20129;-79
2021/04/27 02:10:28;;;;;;;;;;;;;;;10.99;87.21;101105.52;1893549;75;20120;-77
2021/04/27 02:12:57;;;;;;;;;;;;;;;10.99;87.29;101109.41;1893757;75;20124;-79
2021/04/27 02:15:27;;;;;;;;;;;;;;;11.00;87.31;101104.59;1893944;75;20220;-78
2021/04/27 02:18:00;;;;;;;;;;;;;;;10.98;87.31;101088.25;1892665;75;20274;-78
2021/04/27 02:20:28;;;;;;;;;;;;;;;10.96;87.31;101078.89;1893037;75;21379;-78
2021/04/27 02:23:13;;;;;;;;;;;;;;;10.93;87.44;101079.92;1893645;75;20139;-78
2021/04/27 02:25:48;;;;;;;;;;;;;;;10.91;87.60;101066.67;1881576;75;20231;-78
2021/04/27 02:28:19;;;;;;;;;;;;;;;10.90;87.77;101064.98;1893863;75;20104;-79
2021/04/27 02:30:47;;;;;;;;;;;;;;;10.86;87.79;101072.13;1893880;75;20466;-78
2021/04/27 02:33:17;;;;;;;;;;;;;;;10.84;88.13;101076.59;1893716;75;21199;-78
2021/04/27 02:35:49;;;;;;;;;;;;;;;10.84;88.30;101081.78;1893756;75;20253;-78
2021/04/27 02:38:23;;;;;;;;;;;;;;;10.87;88.43;101080.30;1891031;75;20294;-77
2021/04/27 02:40:52;;;;;;;;;;;;;;;10.90;88.30;101074.08;1894094;75;20140;-79
2021/04/27 02:43:21;;;;;;;;;;;;;;;10.90;88.27;101067.58;1893869;75;20306;-78
2021/04/27 02:45:49;;;;;;;;;;;;;;;10.90;88.35;101077.97;1891433;75;22275;-79
2021/04/27 02:48:28;;;;;;;;;;;;;;;10.93;88.47;101076.48;1890134;75;20274;-78
2021/04/27 02:50:59;;;;;;;;;;;;;;;10.93;88.23;101086.41;1881392;76;20130;-78
2021/04/27 02:53:29;;;;;;;;;;;;;;;10.96;88.17;101084.92;1890379;76;20291;-77
2021/04/27 02:55:57;;;;;;;;;;;;;;;10.99;88.07;101092.53;1890746;76;20235;-78
2021/04/27 02:58:26;;;;;;;;;;;;;;;11.01;87.93;101093.26;1890607;76;21175;-77
2021/04/27 03:00:56;;;;;;;;;;;;;;;11.03;87.80;101097.91;1890176;76;20854;-77
2021/04/27 03:03:25;;;;;;;;;;;;;;;11.04;87.81;101095.66;1890414;76;20481;-77
2021/04/27 03:05:53;;;;;;;;;;;;;;;11.06;87.77;101092.98;1890641;75;20156;-77
2021/04/27 03:08:21;;;;;;;;;;;;;;;11.06;87.73;101089.94;1890740;76;20210;-77
2021/04/27 03:10:49;;;;;;;;;;;;;;;11.09;87.83;101091.05;1890675;76;21179;-78
2021/04/27 03:13:17;;;;;;;;;;;;;;;11.11;87.92;101098.73;1858752;76;20251;-77
2021/04/27 03:15:47;;;;;;;;;;;;;;;11.11;87.90;101093.53;1890643;76;20270;-77
2021/04/27 03:18:16;;;;;;;;;;;;;;;11.08;88.16;101094.56;1890731;76;20474;-77
2021/04/27 03:20:45;;;;;;;;;;;;;;;11.05;88.41;101093.91;1890577;76;20164;-77
2021/04/27 03:23:27;;;;;;;;;;;;;;;11.04;88.77;101098.75;1889569;76;21274;-77
2021/04/27 03:25:55;;;;;;;;;;;;;;;11.01;89.41;101090.66;1890456;76;20212;-77
2021/04/27 03:28:29;;;;;;;;;;;;;;;11.03;90.01;101091.88;1888646;76;20262;-77
2021/04/27 03:30:58;;;;;;;;;;;;;;;11.05;89.96;101088.72;1890711;75;20286;-78
2021/04/27 03:33:27;;;;;;;;;;;;;;;11.04;89.90;101087.87;1890638;75;20215;-78
2021/04/27 03:35:56;;;;;;;;;;;;;;;11.04;90.05;101082.68;1890865;76;21187;-77
2021/04/27 03:38:24;;;;;;;;;;;;;;;11.04;90.04;101097.45;1890813;75;20105;-79
2021/04/27 03:40:52;;;;;;;;;;;;;;;11.05;90.10;101105.14;1890656;76;20148;-78
2021/04/27 03:43:24;;;;;;;;;;;;;;;11.07;89.88;101101.97;1889742;76;20108;-77
2021/04/27 03:45:54;;;;;;;;;;;;;;;11.12;89.55;101104.30;1890387;75;20211;-77
2021/04/27 03:48:21;;;;;;;;;;;;;;;11.14;89.23;101095.48;1890491;75;21646;-79
2021/04/27 03:50:52;;;;;;;;;;;;;;;11.18;89.18;101092.69;1881591;76;20160;-79
2021/04/27 03:53:34;;;;;;;;;;;;;;;11.21;89.01;101092.50;1890506;76;20143;-78
2021/04/27 03:56:04;;;;;;;;;;;;;;;11.23;88.79;101098.45;1890477;75;20481;-78
2021/04/27 03:58:33;;;;;;;;;;;;;;;11.23;88.70;101095.86;1890350;76;20231;-79
2021/04/27 04:01:00;;;;;;;;;;;;;;;11.22;88.82;101092.88;1890655;76;21388;-78
2021/04/27 04:03:29;;;;;;;;;;;;;;;11.23;88.86;101095.86;1890380;75;20259;-77
2021/04/27 04:05:57;;;;;;;;;;;;;;;11.26;88.80;101080.92;1890743;76;20282;-77
2021/04/27 04:08:44;;;;;;;;;;;;;;;11.29;88.81;101077.29;1818555;78;20351;-77
2021/04/27 04:11:12;;;;;;;;;;;;;;;11.25;89.19;101068.01;1813198;76;20207;-78
2021/04/27 04:13:42;;;;;;;;;;;;;;;11.22;89.49;101065.61;1890570;76;21177;-79
2021/04/27 04:16:10;;;;;;;;;;;;;;;11.21;89.70;101056.97;1890339;75;20229;-78
2021/04/27 04:18:38;;;;;;;;;;;;;;;11.24;90.00;101031.27;1890600;75;20505;-78
2021/04/27 04:21:07;;;;;;;;;;;;;;;11.24;90.18;101011.78;1890675;76;20183;-78
2021/04/27 04:23:48;;;;;;;;;;;;;;;11.24;90.74;101042.95;1889126;76;20179;-78
2021/04/27 04:26:19;;;;;;;;;;;;;;;11.25;91.15;101042.03;1890820;75;21213;-78
2021/04/27 04:28:49;;;;;;;;;;;;;;;11.26;91.28;101028.12;1886046;76;20143;-79
2021/04/27 04:31:18;;;;;;;;;;;;;;;11.31;91.29;101023.00;1890907;76;20478;-78
2021/04/27 04:33:55;;;;;;;;;;;;;;;11.39;91.21;101014.23;1854153;76;20626;-79
2021/04/27 04:36:27;;;;;;;;;;;;;;;11.49;91.10;101012.72;1849124;76;20294;-80
2021/04/27 04:39:14;;;;;;;;;;;;;;;11.59;90.60;101032.00;1891133;76;21183;-80
2021/04/27 04:42:02;;;;;;;;;;;;;;;11.66;89.43;101025.48;1890950;76;20207;-79
2021/04/27 04:44:47;;;;;;;;;;;;;;;11.76;88.73;101027.51;1890764;76;20560;-79
2021/04/27 04:47:24;;;;;;;;;;;;;;;11.82;88.31;101030.55;1854546;76;20853;-78
2021/04/27 04:50:14;;;;;;;;;;;;;;;11.86;87.58;101028.58;1890733;76;20212;-79
2021/04/27 04:52:53;;;;;;;;;;;;;;;11.89;86.58;101030.98;1886187;76;22167;-79
2021/04/27 04:55:34;;;;;;;;;;;;;;;11.89;85.93;101025.31;1889484;76;20143;-78
2021/04/27 04:58:09;;;;;;;;;;;;;;;11.87;84.77;101021.96;1888806;76;20484;-78
2021/04/27 05:00:39;;;;;;;;;;;;;;;11.86;84.47;101016.87;1885843;76;20336;-78
2021/04/27 05:03:15;;;;;;;;;;;;;;;11.85;84.12;101018.64;1886254;76;20228;-78
2021/04/27 05:06:02;;;;;;;;;;;;;;;11.88;84.13;101039.70;1890805;76;21613;-77
2021/04/27 05:08:51;;;;;;;;;;;;;;;11.87;83.37;101048.46;1890634;76;20608;-77
2021/04/27 05:11:40;;;;;;;;;;;;;;;11.86;83.07;101046.78;1890784;76;20128;-78
2021/04/27 05:14:29;;;;;;;;;;;;;;;11.83;82.63;101050.42;1890703;76;20239;-77
2021/04/27 05:16:58;;;;;;;;;;;;;;;11.85;82.72;101045.95;1891069;76;20207;-78
2021/04/27 05:19:26;;;;;;;;;;;;;;;11.90;82.58;101045.16;1890962;75;21182;-78
2021/04/27 05:21:54;;;;;;;;;;;;;;;11.93;82.27;101046.30;1890907;76;20931;-75
2021/04/27 05:24:23;;;;;;;;;;;;;;;11.97;82.02;101049.04;1891004;76;20266;-77
2021/04/27 05:26:52;;;;;;;;;;;;;;;12.04;81.34;101045.57;1890825;76;20124;-77
2021/04/27 05:29:20;;;;;;;;;;;;;;;12.07;81.33;101038.40;1859086;76;20493;-78
2021/04/27 05:31:49;;;;;;;;;;;;;;;12.17;81.11;101039.92;1890785;76;21190;-76
2021/04/27 05:34:19;;;;;;;;;;;;;;;12.23;80.90;101035.61;1890847;76;20120;-78
2021/04/27 05:36:47;;;;;;;;;;;;;;;12.28;80.39;101043.13;1890871;76;20108;-74
2021/04/27 05:39:14;;;;;;;;;;;;;;;12.28;80.09;101040.05;1890802;76;20216;-79
2021/04/27 05:41:43;;;;;;;;;;;;;;;12.29;80.73;101046.06;1890971;75;20207;-76
2021/04/27 05:44:11;;;;;;;;;;;;;;;12.29;81.30;101038.27;1890732;75;22597;-78
2021/04/27 05:46:39;;;;;;;;;;;;;;;12.26;80.99;101047.58;1887908;75;20234;-79
2021/04/27 05:49:08;;;;;;;;;;;;;;;12.14;81.79;101041.43;1887381;75;20208;-76
2021/04/27 05:51:36;;;;;;;;;;;;;;;12.07;82.60;101037.56;1887367;76;20665;-74
2021/04/27 05:54:06;;;;;;;;;;;;;;;11.98;83.04;101036.41;1887331;75;20271;-75
2021/04/27 05:56:34;;;;;;;;;;;;;;;11.96;83.73;101039.59;1892161;74;21358;-75
2021/04/27 05:59:03;;;;;;;;;;;;;;;11.95;84.23;101030.11;1867989;74;20211;-76
2021/04/27 06:01:34;;;;;;;;;;;;;;;11.88;84.48;101032.74;1891618;74;20268;-75
2021/04/27 06:04:02;;;;;;;;;;;;;;;11.82;85.08;101034.91;1881165;74;20143;-75
2021/04/27 06:06:35;;;;;;;;;;;;;;;11.73;85.57;101035.05;1876857;76;20237;-74
2021/04/27 06:09:05;;;;;;;;;;;;;;;11.63;86.24;101030.88;1856412;76;21621;-75
2021/04/27 06:11:33;;;;;;;;;;;;;;;11.57;86.98;101026.08;1856260;76;20210;-76
2021/04/27 06:14:04;;;;;;;;;;;;;;;11.54;87.59;101024.13;1860905;76;20203;-76
2021/04/27 06:16:34;;;;;;;;;;;;;;;11.47;88.17;101016.36;1878493;74;20524;-76
2021/04/27 06:19:09;;;;;;;;;;;;;;;11.43;88.86;101019.61;1878486;75;20495;-76
2021/04/27 06:21:46;;;;;;;;;;;;;;;11.39;89.57;101016.03;1878662;76;20603;-75
2021/04/27 06:24:14;;;;;;;;;;;;;;;11.33;90.30;101016.39;1875356;76;20278;-75
2021/04/27 06:26:43;;;;;;;;;;;;;;;11.29;91.02;101017.53;1881612;76;20481;-76
2021/04/27 06:29:12;;;;;;;;;;;;;;;11.27;91.65;101016.78;1891153;76;20250;-75
2021/04/27 06:31:40;;;;;;;;;;;;;;;11.24;92.28;101021.70;1890514;74;20263;-75
2021/04/27 06:34:07;;;;;;;;;;;;;;;11.25;92.92;101022.55;1915158;74;21803;-75
2021/04/27 06:36:39;;;;;;;;;;;;;;;11.25;93.69;101028.58;1927355;74;20511;-77
2021/04/27 06:39:16;;;;;;;;;;;;;;;11.23;94.35;101024.42;1887175;75;20227;-74
2021/04/27 06:41:44;;;;;;;;;;;;;;;11.16;94.97;101021.37;1889533;75;20216;-76
2021/04/27 06:44:11;;;;;;;;;;;;;;;11.17;95.55;101017.02;1842428;76;20492;-74
2021/04/27 06:46:40;;;;;;;;;;;;;;;11.19;96.31;101017.74;1830551;76;22635;-73
2021/04/27 06:49:15;;;;;;;;;;;;;;;11.19;96.82;101017.28;1812790;78;20243;-75
2021/04/27 06:51:43;;;;;;;;;;;;;;;11.20;97.32;101011.62;1810940;78;20518;-73
2021/04/27 06:54:11;;;;;;;;;;;;;;;11.19;97.64;101001.70;1810807;79;20281;-74
2021/04/27 06:56:40;;;;;;;;;;;;;;;11.20;97.94;101007.23;1815385;78;20243;-73
2021/04/27 06:59:12;;;;;;;;;;;;;;;11.20;98.16;101004.64;1776235;80;22330;-75
2021/04/27 07:01:39;;;;;;;;;;;;;;;11.20;98.42;100998.14;1787818;78;20312;-74
2021/04/27 07:04:07;;;;;;;;;;;;;;;11.23;98.66;101000.55;1782280;78;20209;-74
2021/04/27 07:06:35;;;;;;;;;;;;;;;11.24;98.89;100992.30;1828199;78;20503;-74
2021/04/27 07:09:05;;;;;;;;;;;;;;;11.26;99.11;100990.45;1815795;78;20553;-74
2021/04/27 07:11:34;;;;;;;;;;;;;;;11.29;99.24;100983.30;1808683;78;22138;-76
2021/04/27 07:14:06;;;;;;;;;;;;;;;11.36;99.37;100981.14;1818505;78;20818;-73
2021/04/27 07:16:36;;;;;;;;;;;;;;;11.41;99.47;100984.27;1817784;78;20223;-73
2021/04/27 07:19:04;;;;;;;;;;;;;;;11.43;99.55;100996.69;1810917;79;20752;-74
2021/04/27 07:21:34;;;;;;;;;;;;;;;11.42;99.63;101010.14;1815507;78;20228;-74
2021/04/27 07:24:04;;;;;;;;;;;;;;;11.39;99.79;101026.42;1811024;79;22315;-73
2021/04/27 07:26:32;;;;;;;;;;;;;;;11.33;100.00;101020.28;1811056;79;20531;-73
2021/04/27 07:29:00;;;;;;;;;;;;;;;11.34;100.00;101018.06;1812051;79;20264;-74
2021/04/27 07:31:30;;;;;;;;;;;;;;;11.37;100.00;101015.27;1816052;78;20124;-73
2021/04/27 07:33:58;;;;;;;;;;;;;;;11.41;100.00;101022.78;1812588;78;20279;-72
2021/04/27 07:36:27;;;;;;;;;;;;;;;11.47;100.00;101021.09;1811025;79;21680;-74
2021/04/27 07:38:56;;;;;;;;;;;;;;;11.52;100.00;101017.72;1811160;78;20212;-72
2021/04/27 07:41:23;;;;;;;;;;;;;;;11.58;100.00;101030.32;1811281;78;20467;-74
2021/04/27 07:43:54;;;;;;;;;;;;;;;11.61;100.00;101026.22;1814576;78;20231;-73
2021/04/27 07:46:24;;;;;;;;;;;;;;;11.65;99.91;101025.09;1795453;78;20718;-76
2021/04/27 07:48:52;;;;;;;;;;;;;;;11.71;99.74;101028.28;1823312;78;21468;-75
2021/04/27 07:51:23;;;;;;;;;;;;;;;11.68;99.44;101029.26;1825290;78;20259;-77
2021/04/27 07:53:54;;;;;;;;;;;;;;;11.66;99.46;101022.04;1816413;78;20497;-73
2021/04/27 07:56:22;;;;;;;;;;;;;;;11.68;99.50;101019.70;1819555;78;20314;-74
2021/04/27 07:58:50;;;;;;;;;;;;;;;11.77;99.58;101017.02;1811299;78;20236;-74
2021/04/27 08:01:20;;;;;;;;;;;;;;;11.84;99.55;101011.77;1810540;78;21379;-73
2021/04/27 08:03:51;;;;;;;;;;;;;;;11.93;99.23;101010.34;1819972;78;20273;-74
2021/04/27 08:06:20;;;;;;;;;;;;;;;12.02;98.89;101014.48;1834008;78;20483;-73
2021/04/27 08:08:48;;;;;;;;;;;;;;;12.05;98.06;101008.23;1828264;77;20353;-74
2021/04/27 08:11:17;;;;;;;;;;;;;;;12.11;97.62;101014.32;1829950;78;20521;-75
2021/04/27 08:13:45;;;;;;;;;;;;;;;12.19;97.28;101010.26;1777413;79;21343;-79
2021/04/27 08:16:12;;;;;;;;;;;;;;;12.29;96.61;101003.97;1769653;80;20232;-75
2021/04/27 08:18:41;;;;;;;;;;;;;;;12.33;95.25;101008.03;1800548;79;20505;-75
2021/04/27 08:21:12;;;;;;;;;;;;;;;12.34;94.75;101003.67;1798421;78;20208;-76
2021/04/27 08:23:43;;;;;;;;;;;;;;;12.37;94.70;101009.97;1823511;78;20245;-75
2021/04/27 08:26:13;;;;;;;;;;;;;;;12.41;94.34;101014.84;1815409;77;21259;-72
2021/04/27 08:28:43;;;;;;;;;;;;;;;12.49;94.22;101007.83;1825393;78;20233;-73
2021/04/27 08:31:12;;;;;;;;;;;;;;;12.56;93.64;101006.02;1803687;77;20308;-73
2021/04/27 08:33:40;;;;;;;;;;;;;;;12.60;93.23;101002.73;1790099;79;20315;-74
2021/04/27 08:36:10;;;;;;;;;;;;;;;12.74;93.17;101002.13;1810463;78;20311;-73
2021/04/27 08:38:38;;;;;;;;;;;;;;;12.94;92.37;100999.44;1805541;78;21350;-73
2021/04/27 08:41:08;;;;;;;;;;;;;;;13.08;90.44;100998.00;1808681;78;38606;-73
2021/04/27 08:43:36;;;;;;;;;;;;;;;13.27;89.76;100989.73;1808069;78;20323;-77
2021/04/27 08:46:06;;;;;;;;;;;;;;;13.63;89.66;100995.33;1826179;77;20772;-75
2021/04/27 08:48:42;;;;;;;;;;;;;;;13.97;86.66;100991.08;1830327;78;20487;-76
2021/04/27 08:51:13;;;;;;;;;;;;;;;14.27;85.03;100986.14;1830997;77;21352;-74
2021/04/27 08:53:41;;;;;;;;;;;;;;;14.58;84.39;100988.59;1839652;77;20226;-74
2021/04/27 08:56:12;;;;;;;;;;;;;;;14.92;81.77;100988.91;1834167;77;20159;-75
2021/04/27 08:58:44;;;;;;;;;;;;;;;15.10;80.82;100990.05;1828832;78;20537;-74
2021/04/27 09:01:12;;;;;;;;;;;;;;;15.21;78.28;100992.66;1820164;78;20522;-74
2021/04/27 09:03:45;;;;;;;;;;;;;;;15.16;76.24;100996.10;1813307;77;21468;-74
2021/04/27 09:06:16;;;;;;;;;;;;;;;15.15;75.96;100999.69;1818811;78;20245;-78
2021/04/27 09:08:45;;;;;;;;;;;;;;;15.27;75.90;101001.80;1827559;78;20505;-75
2021/04/27 09:11:43;;;;;;;;;;;;;;;15.33;75.63;101001.30;1796136;80;20176;-72
2021/04/27 09:14:16;;;;;;;;;;;;;;;15.55;74.32;101003.03;1796091;80;20181;-74
2021/04/27 09:16:51;;;;;;;;;;;;;;;15.64;73.14;101005.73;1796065;78;21192;-75
2021/04/27 09:19:39;;;;;;;;;;;;;;;15.77;71.09;101000.33;1796270;79;20542;-76
2021/04/27 09:22:11;;;;;;;;;;;;;;;15.76;69.66;100999.99;1795339;80;20323;-75
2021/04/27 09:24:42;;;;;;;;;;;;;;;15.83;70.65;100999.81;1795248;80;20332;-75
2021/04/27 09:27:10;;;;;;;;;;;;;;;15.96;69.29;100999.16;1795956;78;20547;-74
2021/04/27 09:29:43;;;;;;;;;;;;;;;16.08;68.92;100999.94;1796058;78;21360;-74
2021/04/27 09:32:11;;;;;;;;;;;;;;;16.35;67.59;100997.13;1795644;78;20808;-75
2021/04/27 09:34:40;;;;;;;;;;;;;;;16.41;67.50;101000.54;1795784;78;20177;-72
2021/04/27 09:37:10;;;;;;;;;;;;;;;16.68;64.29;101006.56;1795981;79;20303;-77
2021/04/27 09:39:44;;;;;;;;;;;;;;;16.66;62.62;101008.47;1796516;80;20248;-74
2021/04/27 09:42:23;;;;;;;;;;;;;;;16.43;62.37;101007.77;1796160;80;21190;-76
2021/04/27 09:44:56;;;;;;;;;;;;;;;16.36;61.38;101007.97;1795871;78;20236;-77
2021/04/27 09:47:29;;;;;;;;;;;;;;;16.41;61.25;101007.56;1793374;78;20446;-75
2021/04/27 09:50:04;;;;;;;;;;;;;;;16.50;60.63;101009.39;1790507;80;20236;-76
2021/04/27 09:52:36;;;;;;;;;;;;;;;16.57;60.94;101005.33;1790005;80;20300;-75
2021/04/27 09:55:07;;;;;;;;;;;;;;;16.58;58.84;101007.48;1789599;77;21373;-73
2021/04/27 09:57:43;;;;;;;;;;;;;;;16.42;60.25;101010.54;1857538;77;20221;-73
2021/04/27 10:00:23;;;;;;;;;;;;;;;16.39;60.97;101011.64;1857126;77;20245;-78
2021/04/27 10:02:52;;;;;;;;;;;;;;;16.24;62.06;101016.83;1822906;77;20952;-74
2021/04/27 10:05:21;;;;;;;;;;;;;;;16.01;62.64;101011.88;1794007;78;20275;-74
2021/04/27 10:07:49;;;;;;;;;;;;;;;15.81;63.82;101023.98;1793464;80;21779;-77
2021/04/27 10:10:18;;;;;;;;;;;;;;;15.62;64.09;101021.20;1795649;77;20295;-77
2021/04/27 10:12:49;;;;;;;;;;;;;;;15.48;64.50;101020.17;1854642;77;20197;-76
2021/04/27 10:15:17;;;;;;;;;;;;;;;15.23;65.25;101018.67;1798915;77;20255;-73
2021/04/27 10:17:45;;;;;;;;;;;;;;;14.99;66.51;101015.39;1857444;77;20146;-76
2021/04/27 10:20:14;;;;;;;;;;;;;;;14.93;67.36;101008.04;1857981;77;21132;-74
2021/04/27 10:22:44;;;;;;;;;;;;;;;14.93;67.86;101014.10;1858199;77;20500;-75
2021/04/27 10:25:20;;;;;;;;;;;;;;;15.02;67.98;101009.45;1857939;77;20305;-75
2021/04/27 10:28:04;;;;;;;;;;;;;;;15.23;67.66;101006.91;1826683;77;20307;-77
2021/04/27 10:30:45;;;;;;;;;;;;;;;15.41;67.26;101013.30;1857726;77;20324;-77
2021/04/27 10:33:15;;;;;;;;;;;;;;;15.21;69.84;101016.19;1858322;76;21870;-77
2021/04/27 10:36:04;;;;;;;;;;;;;;;14.68;72.03;101027.38;1818616;77;20153;-76
2021/04/27 10:38:45;;;;;;;;;;;;;;;14.41;73.87;101022.52;1793997;78;20240;-75
2021/04/27 10:41:16;;;;;;;;;;;;;;;14.88;73.74;101022.76;1794890;80;20209;-79
2021/04/27 10:43:55;;;;;;;;;;;;;;;15.35;70.94;101019.83;1794775;78;20247;-75
2021/04/27 10:46:36;;;;;;;;;;;;;;;15.70;69.93;101027.47;1808755;77;21640;-76
2021/04/27 10:49:11;;;;;;;;;;;;;;;16.06;68.86;101026.23;1805643;77;20109;-72
2021/04/27 10:51:43;;;;;;;;;;;;;;;16.15;68.15;101025.47;1822291;77;20205;-77
2021/04/27 10:54:22;;;;;;;;;;;;;;;16.46;68.01;101017.66;1824179;77;20210;-76
2021/04/27 10:57:10;;;;;;;;;;;;;;;16.64;66.27;101010.88;1807049;78;20225;-76
2021/04/27 10:59:53;;;;;;;;;;;;;;;16.48;66.12;101010.02;1822010;77;21199;-73
2021/04/27 11:02:25;;;;;;;;;;;;;;;16.35;65.67;101016.78;1824660;78;20229;-76
2021/04/27 11:04:58;;;;;;;;;;;;;;;16.06;66.10;101018.38;1823927;78;20528;-78
2021/04/27 11:07:33;;;;;;;;;;;;;;;15.85;66.72;101022.78;1824170;78;20234;-76
2021/04/27 11:10:04;;;;;;;;;;;;;;;15.72;66.73;101016.42;1824213;78;20234;-72
2021/04/27 11:12:35;;;;;;;;;;;;;;;15.61;68.15;101019.06;1825725;77;21644;-75
2021/04/27 11:15:13;;;;;;;;;;;;;;;15.66;68.46;101025.24;1818634;78;20234;-78
2021/04/27 11:18:04;;;;;;;;;;;;;;;15.88;67.91;101024.67;1822206;78;20540;-77
2021/04/27 11:20:59;;;;;;;;;;;;;;;16.00;64.98;101033.77;1844954;77;20153;-78
2021/04/27 11:23:55;;;;;;;;;;;;;;;15.80;66.42;101027.55;1857989;77;20122;-75
2021/04/27 11:26:35;;;;;;;;;;;;;;;15.64;66.62;101034.98;1850426;77;21127;-77
2021/04/27 11:29:19;;;;;;;;;;;;;;;15.28;67.60;101030.91;1828760;77;20140;-78
2021/04/27 11:32:16;;;;;;;;;;;;;;;15.05;69.03;101041.05;1817874;77;20225;-73
2021/04/27 11:35:02;;;;;;;;;;;;;;;14.97;69.53;101043.41;1824257;78;20618;-73
2021/04/27 11:37:41;;;;;;;;;;;;;;;14.83;71.04;101045.34;1823845;76;20147;-78
2021/04/27 11:40:32;;;;;;;;;;;;;;;14.78;71.92;101040.09;1804732;77;21364;-73
2021/04/27 11:43:04;;;;;;;;;;;;;;;14.67;70.62;101050.09;1793594;79;20247;-77
2021/04/27 11:45:37;;;;;;;;;;;;;;;14.69;70.54;101039.03;1856725;77;20245;-76
2021/04/27 11:48:11;;;;;;;;;;;;;;;14.77;70.83;101035.84;1810869;77;20237;-76
2021/04/27 11:50:40;;;;;;;;;;;;;;;14.82;70.92;101042.36;1857835;77;20285;-71
2021/04/27 11:53:16;;;;;;;;;;;;;;;14.93;70.80;101036.78;1847379;77;21770;-73
2021/04/27 11:55:55;;;;;;;;;;;;;;;15.06;70.36;101045.33;1829003;77;20218;-75
2021/04/27 11:58:35;;;;;;;;;;;;;;;15.11;68.48;101048.40;1829273;77;20543;-79
2021/04/27 12:01:06;;;;;;;;;;;;;;;15.17;68.41;101045.30;1839814;77;20238;-74
2021/04/27 12:03:47;;;;;;;;;;;;;;;15.09;68.04;101048.50;1823653;77;20305;-80
2021/04/27 12:06:18;;;;;;;;;;;;;;;14.88;67.99;101051.97;1793469;78;21426;-70
2021/04/27 12:08:53;;;;;;;;;;;;;;;14.77;68.36;101054.13;1791905;80;20193;-72
2021/04/27 12:11:26;;;;;;;;;;;;;;;14.73;68.13;101052.23;1791835;80;20150;-74
2021/04/27 12:14:12;;;;;;;;;;;;;;;14.75;69.00;101054.23;1791737;80;20327;-71
2021/04/27 12:16:44;;;;;;;;;;;;;;;14.69;68.36;101063.02;1797480;77;20317;-77
2021/04/27 12:19:14;;;;;;;;;;;;;;;14.47;70.47;101063.83;1819560;78;21255;-73
2021/04/27 12:21:52;;;;;;;;;;;;;;;14.44;69.72;101065.36;1792289;78;20154;-71
2021/04/27 12:24:22;;;;;;;;;;;;;;;14.38;70.34;101072.83;1792052;80;20514;-73
2021/04/27 12:26:53;;;;;;;;;;;;;;;14.14;70.56;101080.20;1792199;80;20320;-75
2021/04/27 12:29:32;;;;;;;;;;;;;;;13.92;70.38;101085.33;1792068;80;20237;-77
2021/04/27 12:32:19;;;;;;;;;;;;;;;13.99;71.37;101087.02;1792129;78;21189;-77
2021/04/27 12:35:20;;;;;;;;;;;;;;;14.16;70.13;101086.16;1970658;72;20213;-75
2021/04/27 12:38:10;;;;;;;;;;;;;;;14.08;70.61;101086.34;1910504;74;20234;-78
2021/04/27 12:40:52;;;;;;;;;;;;;;;13.99;68.97;101085.72;1912804;74;21128;-73
2021/04/27 12:43:28;;;;;;;;;;;;;;;13.79;70.27;101083.25;1932800;74;20736;-70
2021/04/27 12:45:58;;;;;;;;;;;;;;;13.76;69.62;101090.83;1933406;74;20149;-76
2021/04/27 12:48:29;;;;;;;;;;;;;;;13.77;68.33;101087.30;1933209;74;20228;-74
2021/04/27 12:51:03;;;;;;;;;;;;;;;13.55;69.84;101093.69;1933456;74;20530;-76
2021/04/27 12:53:36;;;;;;;;;;;;;;;13.37;71.75;101087.66;1929968;74;22152;-77
2021/04/27 12:56:17;;;;;;;;;;;;;;;13.22;71.09;101089.08;1913810;74;20220;-73
2021/04/27 12:58:47;;;;;;;;;;;;;;;12.99;70.95;101093.72;1922028;74;20503;-77
2021/04/27 13:01:20;;;;;;;;;;;;;;;13.00;71.73;101099.77;1930364;74;20137;-78
2021/04/27 13:03:57;;;;;;;;;;;;;;;13.03;71.34;101091.73;1900616;74;20158;-77
2021/04/27 13:06:30;;;;;;;;;;;;;;;13.08;71.69;101098.32;1896587;75;21187;-76